Airfield :
LOGIN :

Register | Disclaimer

   EN    FR    IT 

 










Legend :    VFR   Marginal VFR   IFR   Intensive IFR   Very Intensive IFR
Visi :
Ceiling :
>= 8 km
>= 3000ft
5 to 8 km
1000 to 3000 ft
1500m to 5 km
500 to 1000 ft
800 to 1500m
200 to 500 ft
< 800m
< 200 ft
Symbols :   Thunderstorms  Fog  Heavy snow  Heavy precipitations  Wind > 20 kt
SIGMETs :     Misc.  Thunderstorms  Icing  Turbulence  Mountain Waves  Volcanic Ashes






- Airport Elevation : 373 ft
- IATA code : OZH


UKDE - Mokraya

CURRENT METAR :
  • 030430Z 08004MPS 040V130 3100 BR OVC002 M01/M02 Q1027 R02/710570 NOSIG

EXPIRED METARs :
  • 030400Z 07003MPS 040V100 2200 BR OVC002 M02/M02 Q1027 R02/710570 NOSIG
  • 030330Z 08004MPS 030V100 2000 BR OVC002 M02/M02 Q1027 R02/710570 NOSIG
  • 030300Z 07005MPS 1900 BR OVC002 M02/M02 Q1027 R02/710570 NOSIG
  • 030200Z 08003MPS 040V110 2400 BR OVC002 M02/M03 Q1027 R02/710570 NOSIG

TAF COR TAF UKDE
Valid from the 03 at 03:00 until the 03 at 12:00 UTC


030212Z 0303/0312 08005MPS 0200 -FZDZ FZFG VV002 TX02/0312Z TNM02/0303Z
TEMPO 0303/0307 1000 BR OVC005
BECMG 0307/0309 11006MPS 5000 BR OVC006
UKDV FIR / Europe



MET'MAP, your aeronautical weather chart ! - Copyright ORBIFLY December 2007 - Disclaimer

ORBIFLY MET'MAP TEAM :

Programming & Development : Alexandra Zaïnal
Concept & original design : Baudouin d'Aumeries
Assistance for programming : Marc-Olivier Méhu
Technical & hardware support : Manuel Goepfert

Contact : metmap@orbifly.com




SOURCES & CREDITS :

   NOAA